Time;durP1;ratioP1;P1;durP2;ratioP2;P2;SDS_P1;SDS_P2;PMS_P1;PMS_P2;Temp;Humidity;BMP_temperature;BMP_pressure;BME280_temperature;BME280_humidity;BME280_pressure;Samples;Min_cycle;Max_cycle;Signal;HPM_P1;HPM_P2
2022/09/26 00:00:47;;;;;;;2.58;1.80;;;16.30;65.20;;;;;;5071423;28;20058;-71
2022/09/26 00:03:14;;;;;;;2.72;2.00;;;16.30;65.20;;;;;;5072185;28;20135;-71
2022/09/26 00:05:41;;;;;;;2.13;1.73;;;16.30;65.20;;;;;;5071971;28;20055;-71
2022/09/26 00:08:08;;;;;;;2.97;2.03;;;16.30;65.10;;;;;;5072219;28;20059;-71
2022/09/26 00:10:36;;;;;;;2.25;1.67;;;16.30;65.20;;;;;;5068645;28;20045;-71
2022/09/26 00:13:02;;;;;;;2.35;1.77;;;16.30;65.10;;;;;;5051533;28;20401;-71
2022/09/26 00:15:29;;;;;;;2.38;1.90;;;16.30;65.20;;;;;;5052055;28;20048;-71
2022/09/26 00:17:56;;;;;;;2.83;1.98;;;16.20;65.10;;;;;;5052908;28;20057;-71
2022/09/26 00:20:23;;;;;;;3.03;2.00;;;16.20;65.10;;;;;;5052677;28;20060;-71
2022/09/26 00:22:49;;;;;;;3.10;1.88;;;16.30;65.10;;;;;;5051961;28;20049;-71
2022/09/26 00:25:16;;;;;;;2.92;1.85;;;16.20;65.10;;;;;;5058792;28;20509;-71
2022/09/26 00:27:44;;;;;;;2.88;1.90;;;16.20;65.60;;;;;;5072681;28;20048;-71
2022/09/26 00:30:11;;;;;;;2.40;2.08;;;16.20;65.10;;;;;;5071363;28;20512;-71
2022/09/26 00:32:38;;;;;;;2.63;1.90;;;16.20;65.10;;;;;;5071486;28;20052;-71
2022/09/26 00:35:06;;;;;;;2.60;1.77;;;16.20;65.10;;;;;;5071316;28;20076;-71
2022/09/26 00:37:32;;;;;;;2.25;1.90;;;16.20;65.10;;;;;;5072703;28;20405;-71
2022/09/26 00:40:01;;;;;;;2.78;2.00;;;16.20;65.10;;;;;;5058952;28;20053;-71
2022/09/26 00:42:28;;;;;;;2.17;1.75;;;16.20;65.10;;;;;;5051180;28;20076;-71
2022/09/26 00:44:56;;;;;;;2.22;1.70;;;16.20;65.10;;;;;;5052536;28;20059;-71
2022/09/26 00:47:39;;;;;;;2.10;1.70;;;16.20;65.10;;;;;;5052058;28;20053;-71
2022/09/26 00:50:09;;;;;;;2.53;1.80;;;16.20;65.10;;;;;;5032149;28;20053;-71
2022/09/26 00:52:38;;;;;;;2.30;1.60;;;16.20;65.10;;;;;;5032576;28;20164;-71
2022/09/26 00:55:06;;;;;;;3.00;1.90;;;16.20;65.10;;;;;;5031341;28;20062;-71
2022/09/26 00:57:35;;;;;;;2.60;1.83;;;16.20;65.10;;;;;;5032184;28;20050;-71
2022/09/26 01:00:06;;;;;;;2.60;1.80;;;16.20;65.10;;;;;;5032075;28;20053;-71
2022/09/26 01:02:33;;;;;;;3.65;1.67;;;16.20;65.10;;;;;;5041130;28;20544;-71
2022/09/26 01:05:00;;;;;;;2.42;1.70;;;16.20;65.20;;;;;;5070848;28;20067;-71
2022/09/26 01:07:27;;;;;;;2.30;1.60;;;16.20;65.10;;;;;;5072079;28;20127;-71
2022/09/26 01:09:54;;;;;;;2.33;1.63;;;16.20;65.10;;;;;;5070935;28;20053;-71
2022/09/26 01:12:20;;;;;;;3.88;1.70;;;16.20;65.20;;;;;;5070728;28;20059;-71
2022/09/26 01:14:48;;;;;;;1.98;1.67;;;16.20;65.10;;;;;;5071993;28;20131;-71
2022/09/26 01:17:16;;;;;;;2.35;1.52;;;16.20;65.20;;;;;;5062752;28;20055;-71
2022/09/26 01:19:46;;;;;;;2.60;1.67;;;16.20;65.20;;;;;;5051862;28;20045;-71
2022/09/26 01:22:40;;;;;;;2.17;1.60;;;16.20;65.20;;;;;;5051815;28;20049;-71
2022/09/26 01:25:11;;;;;;;2.47;1.63;;;16.20;65.10;;;;;;5050770;28;20061;-71
2022/09/26 01:27:59;;;;;;;2.33;1.65;;;16.10;65.20;;;;;;5052023;28;20421;-71
2022/09/26 01:30:28;;;;;;;2.45;1.80;;;16.20;65.20;;;;;;5050785;28;20067;-71
2022/09/26 01:33:26;;;;;;;3.03;1.80;;;16.10;65.20;;;;;;5070492;28;20048;-71
2022/09/26 01:36:15;;;;;;;2.35;1.73;;;16.20;65.10;;;;;;5046952;28;20048;-71
2022/09/26 01:38:47;;;;;;;2.33;1.63;;;16.20;65.10;;;;;;5070112;28;20570;-71
2022/09/26 01:41:25;;;;;;;2.22;1.60;;;16.10;65.20;;;;;;5071658;28;20049;-71
2022/09/26 01:43:56;;;;;;;2.00;1.48;;;16.10;65.20;;;;;;5070599;28;20063;-71
2022/09/26 01:46:28;;;;;;;2.60;1.70;;;16.10;65.20;;;;;;5060010;28;20056;-71
2022/09/26 01:48:57;;;;;;;1.90;1.38;;;16.10;65.20;;;;;;5051106;28;20064;-71
2022/09/26 01:51:26;;;;;;;2.15;1.50;;;16.10;65.20;;;;;;5050002;28;20055;-71
2022/09/26 01:53:55;;;;;;;2.10;1.40;;;16.10;65.20;;;;;;5050549;28;20063;-71
2022/09/26 01:56:23;;;;;;;1.90;1.40;;;16.10;65.20;;;;;;5051167;28;20512;-71
2022/09/26 01:58:51;;;;;;;2.80;1.65;;;16.10;67.80;;;;;;5051482;28;20051;-71
2022/09/26 02:01:18;;;;;;;2.33;1.75;;;16.10;65.20;;;;;;5065824;28;20048;-71
2022/09/26 02:03:47;;;;;;;1.98;1.55;;;16.10;65.20;;;;;;5053805;28;20064;-71
2022/09/26 02:06:15;;;;;;;2.10;1.50;;;16.10;65.20;;;;;;5071448;28;20524;-71
2022/09/26 02:08:44;;;;;;;2.05;1.70;;;16.10;65.20;;;;;;5071221;28;20131;-71
2022/09/26 02:11:12;;;;;;;2.10;1.60;;;16.10;65.20;;;;;;5071307;28;20044;-71
2022/09/26 02:13:42;;;;;;;2.00;1.50;;;16.10;65.20;;;;;;5070060;28;20412;-71
2022/09/26 02:16:10;;;;;;;2.05;1.50;;;16.10;65.20;;;;;;5054688;28;20045;-71
2022/09/26 02:18:38;;;;;;;2.10;1.55;;;16.10;65.20;;;;;;5051381;28;20128;-71
2022/09/26 02:21:08;;;;;;;1.65;1.50;;;16.10;65.20;;;;;;5049774;28;20053;-71
2022/09/26 02:23:35;;;;;;;1.95;1.33;;;16.10;65.20;;;;;;5050253;28;20044;-71
2022/09/26 02:26:01;;;;;;;1.88;1.42;;;16.10;65.20;;;;;;5050006;28;20049;-71
2022/09/26 02:28:28;;;;;;;3.95;1.60;;;16.10;65.20;;;;;;5050450;28;20085;-71
2022/09/26 02:30:55;;;;;;;1.92;1.40;;;16.10;65.20;;;;;;5070016;28;20095;-69
2022/09/26 02:33:21;;;;;;;1.60;1.33;;;16.10;65.20;;;;;;5068822;28;20059;-69
2022/09/26 02:35:54;;;;;;;1.98;1.40;;;16.10;65.20;;;;;;5050653;28;20049;-69
2022/09/26 02:38:22;;;;;;;2.13;1.40;;;16.10;65.20;;;;;;5047451;28;20132;-69
2022/09/26 02:40:51;;;;;;;1.50;1.40;;;16.10;65.20;;;;;;5049710;28;20053;-69
2022/09/26 02:43:52;;;;;;;2.28;1.42;;;16.10;65.20;;;;;;5051109;28;20052;-69
2022/09/26 02:46:38;;;;;;;1.70;1.30;;;16.10;65.10;;;;;;5025976;28;20392;-69
2022/09/26 02:49:15;;;;;;;1.65;1.40;;;16.10;65.20;;;;;;5051826;28;20120;-69
2022/09/26 02:51:53;;;;;;;2.40;1.50;;;16.10;65.20;;;;;;5052852;28;20465;-69
2022/09/26 02:54:23;;;;;;;1.83;1.40;;;16.10;65.20;;;;;;5052840;28;20052;-69
2022/09/26 02:57:02;;;;;;;1.98;1.40;;;16.00;65.10;;;;;;5054303;28;20409;-69
2022/09/26 02:59:33;;;;;;;2.13;1.30;;;16.10;65.20;;;;;;5054156;28;20444;-69
2022/09/26 03:02:02;;;;;;;2.55;1.65;;;16.10;67.80;;;;;;5052482;28;20049;-69
2022/09/26 03:04:31;;;;;;;2.28;1.50;;;16.00;65.20;;;;;;5054125;28;20067;-69
2022/09/26 03:06:59;;;;;;;1.45;1.20;;;16.00;66.00;;;;;;5054015;28;20056;-69
2022/09/26 03:09:27;;;;;;;4.07;1.40;;;16.00;65.20;;;;;;5052843;28;20049;-69
2022/09/26 03:11:54;;;;;;;1.60;1.30;;;16.00;65.10;;;;;;5050308;28;20045;-69
2022/09/26 03:14:21;;;;;;;1.73;1.20;;;16.00;65.10;;;;;;5053915;28;20626;-69
2022/09/26 03:16:48;;;;;;;2.45;1.35;;;16.00;65.10;;;;;;5052934;28;20124;-69
2022/09/26 03:19:16;;;;;;;1.63;1.20;;;16.00;65.10;;;;;;5053729;28;20494;-69
2022/09/26 03:21:44;;;;;;;2.72;1.60;;;16.00;65.10;;;;;;5053231;28;20047;-69
2022/09/26 03:24:10;;;;;;;1.90;1.10;;;16.00;65.10;;;;;;5053816;28;20045;-68
2022/09/26 03:26:39;;;;;;;1.60;1.15;;;16.00;65.10;;;;;;5053748;28;20081;-68
2022/09/26 03:29:06;;;;;;;2.20;1.23;;;16.00;65.10;;;;;;5053399;28;20522;-68
2022/09/26 03:31:32;;;;;;;2.42;1.40;;;16.00;65.10;;;;;;5052229;28;20056;-68
2022/09/26 03:33:59;;;;;;;1.65;1.20;;;16.00;65.10;;;;;;5053296;28;20397;-69
2022/09/26 03:36:26;;;;;;;2.47;1.42;;;16.00;65.60;;;;;;5053137;28;20068;-69
2022/09/26 03:38:53;;;;;;;1.73;1.13;;;16.00;65.10;;;;;;5053815;28;20406;-69
2022/09/26 03:41:19;;;;;;;2.50;1.42;;;16.00;65.10;;;;;;5069447;28;20055;-71
2022/09/26 03:43:48;;;;;;;2.05;1.20;;;16.00;65.10;;;;;;5073785;28;20091;-70
2022/09/26 03:46:15;;;;;;;2.10;1.50;;;16.00;65.10;;;;;;5073613;28;20076;-70
2022/09/26 03:48:42;;;;;;;1.67;1.27;;;16.00;65.10;;;;;;5072462;28;20086;-71
2022/09/26 03:51:09;;;;;;;1.30;1.10;;;16.00;65.10;;;;;;5073465;28;20044;-70
2022/09/26 03:53:38;;;;;;;2.35;1.25;;;16.00;65.60;;;;;;5073289;28;20045;-70
2022/09/26 03:56:06;;;;;;;1.75;1.25;;;16.00;65.10;;;;;;5049518;28;20112;-70
2022/09/26 03:58:32;;;;;;;1.40;1.20;;;16.00;65.10;;;;;;5033384;28;20056;-70
2022/09/26 04:01:04;;;;;;;1.45;1.10;;;16.00;65.10;;;;;;5032708;28;20053;-70
2022/09/26 04:03:33;;;;;;;1.45;1.20;;;16.00;65.10;;;;;;5033762;28;20057;-71
2022/09/26 04:06:00;;;;;;;1.10;1.00;;;16.00;65.10;;;;;;5032315;28;20049;-71
2022/09/26 04:08:27;;;;;;;1.70;1.13;;;16.00;65.10;;;;;;5033484;28;20056;-70
2022/09/26 04:10:59;;;;;;;1.48;1.15;;;16.00;65.10;;;;;;5072071;28;20084;-71
2022/09/26 04:13:26;;;;;;;1.50;1.15;;;15.90;65.10;;;;;;5073275;28;20044;-70
2022/09/26 04:15:55;;;;;;;1.73;1.20;;;15.90;65.10;;;;;;5072886;28;20560;-71
2022/09/26 04:18:23;;;;;;;1.48;1.20;;;15.90;65.10;;;;;;5055457;28;20053;-71
2022/09/26 04:20:49;;;;;;;1.30;1.13;;;16.00;65.20;;;;;;5072744;28;20044;-71
2022/09/26 04:23:16;;;;;;;1.25;1.15;;;16.00;65.10;;;;;;5066423;28;20049;-71
2022/09/26 04:25:43;;;;;;;1.80;1.23;;;16.10;67.80;;;;;;5052965;28;20056;-70
2022/09/26 04:28:10;;;;;;;1.50;1.30;;;15.90;65.10;;;;;;5051778;28;20052;-71
2022/09/26 04:30:38;;;;;;;1.45;1.20;;;15.90;65.10;;;;;;5052612;28;20052;-71
2022/09/26 04:33:05;;;;;;;2.00;1.10;;;15.90;65.10;;;;;;5053192;28;20519;-71
2022/09/26 04:35:33;;;;;;;2.45;1.20;;;15.90;65.10;;;;;;5051697;28;20053;-71
2022/09/26 04:37:59;;;;;;;1.52;1.33;;;15.90;65.10;;;;;;5051791;28;20482;-71
2022/09/26 04:40:26;;;;;;;1.35;1.10;;;15.90;65.10;;;;;;5061000;28;20052;-71
2022/09/26 04:42:53;;;;;;;1.88;1.30;;;15.90;65.10;;;;;;5071093;28;20477;-71
2022/09/26 04:45:20;;;;;;;1.55;1.10;;;15.90;65.10;;;;;;5071130;28;20078;-71
2022/09/26 04:47:46;;;;;;;2.08;1.40;;;15.90;65.10;;;;;;5072464;28;20052;-71
2022/09/26 04:50:13;;;;;;;1.73;1.17;;;15.90;65.10;;;;;;5071314;28;20058;-71
2022/09/26 04:52:41;;;;;;;1.45;1.10;;;15.90;65.10;;;;;;5071325;28;20048;-71
2022/09/26 04:55:10;;;;;;;1.85;1.20;;;15.90;65.10;;;;;;5071292;28;20446;-71
2022/09/26 04:57:37;;;;;;;1.73;1.20;;;15.90;65.10;;;;;;5070425;28;20052;-70
2022/09/26 05:00:06;;;;;;;1.50;1.10;;;15.90;65.10;;;;;;5071879;28;20521;-70
2022/09/26 05:02:32;;;;;;;1.70;1.25;;;15.90;65.10;;;;;;5070840;28;20059;-70
2022/09/26 05:04:59;;;;;;;1.48;1.05;;;15.90;65.10;;;;;;5070690;28;20058;-70
2022/09/26 05:07:26;;;;;;;1.60;1.10;;;15.90;65.10;;;;;;5070855;28;20059;-71
2022/09/26 05:09:55;;;;;;;1.38;1.23;;;15.90;65.30;;;;;;5070780;28;20175;-70
2022/09/26 05:12:22;;;;;;;1.70;1.00;;;15.90;65.10;;;;;;5065540;28;20052;-71
2022/09/26 05:14:50;;;;;;;1.27;1.17;;;15.90;65.10;;;;;;5051089;28;20060;-70
2022/09/26 05:17:19;;;;;;;1.48;1.20;;;15.90;65.10;;;;;;5050633;28;20103;-70
2022/09/26 05:19:46;;;;;;;2.13;1.30;;;15.90;65.10;;;;;;5051981;28;20106;-70
2022/09/26 05:22:13;;;;;;;1.83;1.30;;;15.90;65.10;;;;;;5050613;28;20132;-70
2022/09/26 05:27:25;;;;;;;1.52;1.10;;;15.90;65.20;;;;;;5047368;28;20049;-70
2022/09/26 05:29:55;;;;;;;1.90;1.20;;;15.90;65.10;;;;;;5030894;28;20061;-71
2022/09/26 05:32:22;;;;;;;1.50;1.17;;;15.90;65.20;;;;;;5031940;28;20045;-70
2022/09/26 05:34:49;;;;;;;2.35;1.40;;;15.90;65.20;;;;;;5031732;28;20056;-71
2022/09/26 05:37:16;;;;;;;1.90;1.30;;;15.90;65.20;;;;;;5042270;28;20494;-70
2022/09/26 05:42:28;;;;;;;1.52;1.30;;;15.90;65.20;;;;;;5070834;28;20509;-71
2022/09/26 05:44:55;;;;;;;1.80;1.15;;;15.90;65.20;;;;;;5070540;28;20056;-71
2022/09/26 05:47:22;;;;;;;1.00;0.90;;;15.90;65.20;;;;;;5071627;28;20053;-72
2022/09/26 05:49:49;;;;;;;1.58;1.10;;;15.90;65.20;;;;;;5071373;28;20049;-71
2022/09/26 05:52:16;;;;;;;1.83;1.20;;;15.80;65.10;;;;;;5070537;28;20056;-71
2022/09/26 05:54:42;;;;;;;1.77;1.15;;;15.90;65.20;;;;;;5062034;28;20049;-71
2022/09/26 05:57:09;;;;;;;1.73;1.27;;;15.90;66.40;;;;;;5050443;28;20053;-71
2022/09/26 05:59:37;;;;;;;1.30;1.10;;;15.90;65.10;;;;;;5051590;28;20414;-71
2022/09/26 06:02:05;;;;;;;1.30;1.20;;;15.90;65.10;;;;;;5050037;28;20063;-71
2022/09/26 06:04:31;;;;;;;1.40;1.17;;;15.90;65.10;;;;;;5050229;28;20483;-71
2022/09/26 06:06:58;;;;;;;3.08;1.40;;;15.90;65.10;;;;;;5050149;28;20137;-71
2022/09/26 06:09:25;;;;;;;1.10;1.00;;;15.90;65.10;;;;;;5057791;28;20060;-71
2022/09/26 06:11:51;;;;;;;1.88;1.30;;;15.90;65.10;;;;;;5071175;28;20504;-71
2022/09/26 06:14:18;;;;;;;1.40;1.20;;;15.90;65.10;;;;;;5069930;28;20052;-71
2022/09/26 06:16:46;;;;;;;1.10;1.00;;;15.90;65.10;;;;;;5070329;28;20063;-71
2022/09/26 06:19:13;;;;;;;2.65;1.30;;;15.90;65.10;;;;;;5070179;28;20056;-71
2022/09/26 06:21:42;;;;;;;1.85;1.30;;;15.90;65.10;;;;;;5071195;28;20408;-71
2022/09/26 06:24:09;;;;;;;1.52;1.10;;;15.90;65.10;;;;;;5060251;28;20053;-71
2022/09/26 06:26:36;;;;;;;1.77;1.30;;;15.90;65.10;;;;;;5053889;28;20084;-71
2022/09/26 06:29:03;;;;;;;1.33;1.10;;;15.90;65.10;;;;;;5054994;28;20065;-71
2022/09/26 06:31:30;;;;;;;2.75;1.08;;;15.90;65.10;;;;;;5054449;28;20040;-71
2022/09/26 06:34:00;;;;;;;1.52;1.15;;;15.90;65.10;;;;;;5054805;28;20045;-71
2022/09/26 06:36:27;;;;;;;1.38;1.20;;;15.90;65.10;;;;;;5051208;28;20063;-71
2022/09/26 06:38:53;;;;;;;1.65;1.20;;;15.90;65.10;;;;;;5054732;28;20044;-71
2022/09/26 06:41:20;;;;;;;1.92;1.17;;;15.90;65.10;;;;;;5054082;28;20056;-72
2022/09/26 06:43:47;;;;;;;1.75;1.13;;;15.90;65.10;;;;;;5053829;28;20053;-71
2022/09/26 06:46:15;;;;;;;2.42;1.20;;;15.90;65.10;;;;;;5054220;28;20065;-73
2022/09/26 06:48:41;;;;;;;1.75;1.27;;;15.90;65.10;;;;;;5053948;28;20053;-73
2022/09/26 06:51:13;;;;;;;1.40;1.10;;;15.90;65.10;;;;;;5053615;28;20053;-73
2022/09/26 06:53:39;;;;;;;1.55;1.15;;;15.90;65.10;;;;;;5055279;28;20604;-72
2022/09/26 06:56:07;;;;;;;1.58;1.20;;;15.90;65.10;;;;;;5069721;28;20059;-71
2022/09/26 06:58:34;;;;;;;1.40;1.20;;;15.90;65.10;;;;;;5056345;28;20102;-72
2022/09/26 07:01:00;;;;;;;1.48;1.10;;;15.90;65.00;;;;;;5054491;28;20045;-71
2022/09/26 07:03:27;;;;;;;2.53;1.33;;;16.00;65.10;;;;;;5053490;28;20383;-71
2022/09/26 07:05:54;;;;;;;2.78;1.67;;;16.00;65.00;;;;;;5053280;28;20167;-71
2022/09/26 07:08:24;;;;;;;2.40;1.50;;;16.00;65.00;;;;;;5053457;28;20052;-71
2022/09/26 07:10:51;;;;;;;2.97;1.58;;;16.10;65.00;;;;;;5071293;28;20044;-71
2022/09/26 07:13:18;;;;;;;3.20;1.45;;;16.10;64.90;;;;;;5073245;28;20048;-72
2022/09/26 07:15:45;;;;;;;2.15;1.52;;;16.20;64.90;;;;;;5055079;28;20044;-71
2022/09/26 07:18:11;;;;;;;1.85;1.42;;;16.20;64.90;;;;;;5053376;28;20152;-71
2022/09/26 07:20:39;;;;;;;3.63;1.40;;;17.40;67.90;;;;;;5052721;28;20053;-72
2022/09/26 07:23:07;;;;;;;3.05;1.40;;;16.20;64.80;;;;;;5054129;28;20049;-72
2022/09/26 07:25:37;;;;;;;5.10;1.60;;;16.30;64.80;;;;;;5055675;28;20084;-71
2022/09/26 07:28:04;;;;;;;1.85;1.40;;;16.40;64.70;;;;;;5059343;28;20049;-71
2022/09/26 07:30:31;;;;;;;2.00;1.35;;;16.40;64.70;;;;;;5052384;28;20135;-71
2022/09/26 07:32:59;;;;;;;2.72;1.42;;;16.40;64.60;;;;;;5053825;28;20049;-71
2022/09/26 07:35:27;;;;;;;3.85;1.70;;;16.50;64.60;;;;;;5051405;28;20478;-71
2022/09/26 07:37:53;;;;;;;2.70;1.30;;;16.50;64.50;;;;;;5052211;28;20061;-72
2022/09/26 07:40:20;;;;;;;2.42;1.50;;;16.90;67.50;;;;;;5053042;28;20053;-71
2022/09/26 07:42:50;;;;;;;5.07;1.52;;;16.50;64.30;;;;;;5053335;28;20106;-71
2022/09/26 07:50:09;;;;;;;3.38;1.45;;;16.60;64.30;;;;;;5053322;28;20055;-71
2022/09/26 07:50:48;;;;;;;2.65;1.38;;;16.60;64.30;;;;;;5050471;28;20041;-72
2022/09/26 07:53:14;;;;;;;2.97;1.48;;;16.60;64.20;;;;;;5052182;28;20067;-73
2022/09/26 07:56:04;;;;;;;3.15;1.55;;;16.70;66.70;;;;;;5052559;28;20061;-72
2022/09/26 07:58:29;;;;;;;2.03;1.20;;;16.70;64.20;;;;;;5051085;28;20143;-71
2022/09/26 08:00:56;;;;;;;2.25;1.27;;;16.70;64.20;;;;;;5051381;28;20052;-71
2022/09/26 08:03:25;;;;;;;2.88;1.27;;;16.70;64.10;;;;;;5052566;28;20561;-71
2022/09/26 08:05:52;;;;;;;1.90;1.30;;;16.70;64.10;;;;;;5053261;28;20106;-71
2022/09/26 08:08:19;;;;;;;2.00;1.50;;;16.70;64.10;;;;;;5052631;28;20057;-70
2022/09/26 08:10:46;;;;;;;2.35;1.40;;;16.80;64.10;;;;;;5052975;28;20492;-71
2022/09/26 08:13:12;;;;;;;2.00;1.42;;;16.80;64.10;;;;;;5042463;28;20053;-73
2022/09/26 08:15:41;;;;;;;4.20;1.60;;;16.80;64.60;;;;;;5052865;28;20045;-72
2022/09/26 08:18:08;;;;;;;1.83;1.10;;;16.80;64.10;;;;;;5051985;28;20502;-73
2022/09/26 08:20:35;;;;;;;1.65;1.20;;;16.90;64.20;;;;;;5051791;28;20056;-73
2022/09/26 08:23:02;;;;;;;1.20;1.05;;;16.90;64.10;;;;;;5051877;28;20084;-73
2022/09/26 08:25:29;;;;;;;1.98;1.30;;;16.90;64.10;;;;;;5052069;28;20383;-73
2022/09/26 08:27:58;;;;;;;1.65;1.27;;;16.90;64.00;;;;;;5051415;28;20059;-73
2022/09/26 08:30:26;;;;;;;1.98;1.30;;;17.00;64.00;;;;;;5053757;28;20509;-73
2022/09/26 08:32:57;;;;;;;2.00;1.20;;;17.00;64.00;;;;;;5041525;28;20489;-73
2022/09/26 08:35:25;;;;;;;1.85;1.10;;;17.00;63.90;;;;;;5050707;28;20053;-72
2022/09/26 08:37:52;;;;;;;2.28;1.20;;;17.00;63.90;;;;;;5051880;28;20410;-72
2022/09/26 08:40:18;;;;;;;3.83;1.48;;;17.10;63.90;;;;;;5051880;28;20490;-72
2022/09/26 08:42:50;;;;;;;4.47;1.35;;;17.10;63.80;;;;;;5052079;28;20065;-72
2022/09/26 08:48:31;;;;;;;3.95;1.67;;;17.20;63.90;;;;;;5065812;28;20053;-72
2022/09/26 08:51:00;;;;;;;6.60;1.73;;;17.20;63.90;;;;;;5049385;28;20563;-71
2022/09/26 08:53:27;;;;;;;4.40;1.60;;;17.20;63.90;;;;;;5050229;28;20044;-72
2022/09/26 08:55:55;;;;;;;6.05;1.85;;;17.30;63.90;;;;;;5049451;28;20071;-71
2022/09/26 08:58:25;;;;;;;3.75;1.50;;;17.30;63.80;;;;;;5049514;28;20479;-71
2022/09/26 09:00:55;;;;;;;4.05;2.00;;;17.30;63.80;;;;;;5049785;28;20510;-71
2022/09/26 09:03:26;;;;;;;4.03;1.80;;;17.30;63.70;;;;;;5052022;28;20055;-71
2022/09/26 09:05:54;;;;;;;3.92;1.70;;;17.30;63.70;;;;;;5050795;28;20045;-70
2022/09/26 09:08:23;;;;;;;3.65;1.80;;;17.40;63.70;;;;;;5048255;28;20431;-70
2022/09/26 09:10:54;;;;;;;3.95;2.08;;;17.30;63.60;;;;;;5050325;28;20045;-71
2022/09/26 09:13:27;;;;;;;4.10;1.70;;;17.30;63.60;;;;;;5048202;28;20139;-70
2022/09/26 09:16:05;;;;;;;6.13;2.13;;;17.30;63.70;;;;;;5050980;28;20055;-70
2022/09/26 09:18:37;;;;;;;4.60;1.88;;;17.30;63.80;;;;;;5049340;28;20056;-71
2022/09/26 09:21:09;;;;;;;4.45;1.88;;;17.30;64.00;;;;;;5047356;28;20065;-72
2022/09/26 09:23:44;;;;;;;5.38;1.98;;;17.30;64.10;;;;;;5050556;28;20048;-70
2022/09/26 09:26:13;;;;;;;3.30;1.77;;;17.30;64.20;;;;;;5050609;28;20056;-70
2022/09/26 09:28:52;;;;;;;5.97;1.95;;;17.30;64.30;;;;;;5047124;28;20509;-70
2022/09/26 09:31:19;;;;;;;4.63;2.20;;;17.20;64.30;;;;;;5050084;28;20056;-70
2022/09/26 09:33:48;;;;;;;3.15;1.80;;;17.20;64.40;;;;;;5051545;28;20430;-72
2022/09/26 09:36:16;;;;;;;3.20;1.60;;;17.20;64.40;;;;;;5050269;28;20060;-70
2022/09/26 09:38:44;;;;;;;3.40;1.70;;;17.20;65.00;;;;;;5049816;28;20051;-70
2022/09/26 09:41:11;;;;;;;5.32;1.65;;;17.20;64.50;;;;;;5050470;28;20060;-71
2022/09/26 09:43:39;;;;;;;4.38;1.70;;;17.20;64.60;;;;;;5051943;28;20449;-71
2022/09/26 09:46:12;;;;;;;4.78;1.60;;;17.20;64.60;;;;;;5068247;28;20048;-71
2022/09/26 09:48:39;;;;;;;5.38;1.73;;;17.30;64.70;;;;;;5071634;28;20048;-72
2022/09/26 09:51:13;;;;;;;5.07;1.67;;;17.30;64.70;;;;;;5070524;28;20056;-71
2022/09/26 09:53:50;;;;;;;3.30;1.52;;;17.30;64.60;;;;;;5070573;28;20489;-72
2022/09/26 09:56:21;;;;;;;4.22;1.55;;;17.20;64.50;;;;;;5070740;28;20052;-72
2022/09/26 09:59:02;;;;;;;3.83;1.60;;;17.20;64.70;;;;;;5073123;28;20055;-72
2022/09/26 10:01:31;;;;;;;3.92;1.70;;;17.30;64.90;;;;;;5054516;28;20048;-72
2022/09/26 10:04:02;;;;;;;4.43;1.67;;;17.30;64.80;;;;;;5054575;28;20049;-72
2022/09/26 10:06:32;;;;;;;3.50;1.52;;;17.30;64.80;;;;;;5054434;28;20068;-73
2022/09/26 10:09:04;;;;;;;3.55;1.48;;;17.30;64.80;;;;;;5055542;28;20064;-72
2022/09/26 10:11:37;;;;;;;2.53;1.50;;;17.40;64.80;;;;;;5055355;28;20060;-72
2022/09/26 10:14:06;;;;;;;3.88;1.52;;;17.40;64.80;;;;;;5062412;28;20117;-71
2022/09/26 10:16:33;;;;;;;3.88;1.63;;;17.40;64.80;;;;;;5069513;28;20053;-72
2022/09/26 10:19:04;;;;;;;5.72;1.63;;;17.40;64.70;;;;;;5053931;28;20460;-72
2022/09/26 10:21:33;;;;;;;3.40;1.33;;;17.40;64.70;;;;;;5054568;28;20061;-72
2022/09/26 10:24:02;;;;;;;2.90;1.50;;;17.40;64.80;;;;;;5054486;28;20060;-72
2022/09/26 10:26:33;;;;;;;3.72;1.65;;;17.40;64.70;;;;;;5055470;28;20136;-72
2022/09/26 10:29:01;;;;;;;2.78;1.52;;;17.40;64.80;;;;;;5051286;28;20110;-72
2022/09/26 10:31:29;;;;;;;4.30;1.98;;;17.40;64.80;;;;;;5060602;28;20052;-72
2022/09/26 10:33:58;;;;;;;2.50;1.60;;;17.30;64.80;;;;;;5058578;28;20068;-72
2022/09/26 10:36:29;;;;;;;2.95;1.50;;;17.30;64.70;;;;;;5053205;28;20064;-72
2022/09/26 10:41:44;;;;;;;2.00;1.48;;;17.30;64.80;;;;;;5050940;28;20053;-72
2022/09/26 10:44:22;;;;;;;4.50;1.45;;;17.20;64.90;;;;;;5050771;28;20103;-72
2022/09/26 10:46:50;;;;;;;2.35;1.35;;;17.20;64.70;;;;;;5053446;28;20529;-72
2022/09/26 10:49:17;;;;;;;3.33;1.60;;;17.20;64.80;;;;;;5053129;28;20060;-72
2022/09/26 10:51:45;;;;;;;1.92;1.30;;;17.20;64.80;;;;;;5053102;28;20045;-72
2022/09/26 10:54:17;;;;;;;3.72;1.60;;;17.20;64.80;;;;;;5037656;28;20417;-72
2022/09/26 10:56:46;;;;;;;1.90;1.50;;;17.20;64.80;;;;;;5054495;28;20050;-72
2022/09/26 10:59:13;;;;;;;2.97;1.60;;;17.10;64.80;;;;;;5053673;28;20059;-72
2022/09/26 11:01:41;;;;;;;2.83;1.60;;;17.10;64.80;;;;;;5054346;28;20433;-72
2022/09/26 11:04:14;;;;;;;2.63;1.30;;;17.10;64.80;;;;;;5053698;28;20048;-72
2022/09/26 11:06:42;;;;;;;4.22;1.52;;;17.10;64.70;;;;;;5053197;28;20235;-72
2022/09/26 11:09:10;;;;;;;2.15;1.27;;;17.10;64.80;;;;;;5052788;28;20124;-72
2022/09/26 11:11:38;;;;;;;4.38;1.50;;;17.10;64.80;;;;;;5053202;28;20048;-72
2022/09/26 11:14:06;;;;;;;2.58;1.38;;;17.10;64.80;;;;;;5054306;28;20053;-72
2022/09/26 11:16:50;;;;;;;2.05;1.20;;;17.10;64.80;;;;;;5052980;28;20045;-72
2022/09/26 11:19:21;;;;;;;2.25;1.30;;;17.10;64.70;;;;;;5053234;28;20056;-72
2022/09/26 11:21:51;;;;;;;3.03;1.40;;;17.10;64.80;;;;;;5053834;28;20052;-72
2022/09/26 11:24:21;;;;;;;2.45;1.40;;;17.10;64.80;;;;;;5053801;28;20055;-72
2022/09/26 11:26:55;;;;;;;2.72;1.30;;;17.10;64.80;;;;;;5043588;28;20059;-72
2022/09/26 11:29:23;;;;;;;2.85;1.40;;;17.10;64.80;;;;;;5053074;28;20075;-72
2022/09/26 11:31:50;;;;;;;2.13;1.23;;;17.10;64.80;;;;;;5053959;28;20052;-72
2022/09/26 11:34:21;;;;;;;3.45;1.70;;;17.00;64.80;;;;;;5052927;28;20053;-72
2022/09/26 11:37:06;;;;;;;1.95;1.30;;;17.00;64.80;;;;;;5053155;28;20052;-72
2022/09/26 11:39:41;;;;;;;3.90;1.40;;;17.10;64.70;;;;;;5066060;28;20405;-72
2022/09/26 11:42:13;;;;;;;;;;;17.00;64.80;;;;;;5073367;28;20056;-71
2022/09/26 11:44:57;;;;;;;1.77;1.30;;;17.00;64.80;;;;;;5073614;28;20385;-71
2022/09/26 11:47:52;;;;;;;2.17;1.40;;;17.00;64.90;;;;;;5065532;28;20132;-71
2022/09/26 11:50:43;;;;;;;2.22;1.30;;;17.00;64.80;;;;;;5038203;28;20057;-71
2022/09/26 11:53:43;;;;;;;1.73;1.25;;;17.00;64.80;;;;;;5052491;28;20080;-73
2022/09/26 11:56:34;;;;;;;1.40;1.15;;;17.00;64.80;;;;;;5029347;28;20084;-73
2022/09/26 11:59:08;;;;;;;6.00;1.50;;;17.10;64.90;;;;;;5073434;28;20131;-74
2022/09/26 12:01:39;;;;;;;3.70;1.10;;;17.10;64.90;;;;;;5073664;28;20044;-72
2022/09/26 12:04:18;;;;;;;2.20;1.20;;;17.10;64.90;;;;;;5072417;28;20113;-71
2022/09/26 12:06:48;;;;;;;1.10;1.00;;;17.10;64.90;;;;;;5073486;28;20053;-72
2022/09/26 12:09:25;;;;;;;2.35;1.30;;;17.10;64.90;;;;;;5053840;28;20163;-73
2022/09/26 12:11:58;;;;;;;2.78;1.10;;;17.10;64.90;;;;;;5034468;28;20128;-74
2022/09/26 12:14:40;;;;;;;2.05;1.30;;;17.10;65.00;;;;;;5043534;28;20075;-73
2022/09/26 12:17:11;;;;;;;1.95;1.30;;;17.10;65.00;;;;;;5052345;28;20055;-73
2022/09/26 12:19:40;;;;;;;5.40;1.30;;;17.00;64.90;;;;;;5052926;28;20416;-73
2022/09/26 12:24:58;;;;;;;1.50;1.15;;;17.10;64.90;;;;;;5052031;28;20132;-71
2022/09/26 12:27:28;;;;;;;2.83;1.40;;;17.00;64.90;;;;;;5053014;28;20049;-71
2022/09/26 12:30:01;;;;;;;2.95;1.30;;;17.00;64.90;;;;;;5051549;28;20061;-71
2022/09/26 12:32:42;;;;;;;1.77;1.20;;;17.00;64.90;;;;;;5051870;28;20111;-71
2022/09/26 12:35:26;;;;;;;1.38;1.08;;;17.00;64.90;;;;;;5051506;28;20080;-71
2022/09/26 12:38:12;;;;;;;2.47;1.20;;;16.90;64.90;;;;;;5067413;28;20056;-71
2022/09/26 12:40:41;;;;;;;1.85;1.30;;;16.90;64.90;;;;;;5072228;28;20102;-71
2022/09/26 12:43:24;;;;;;;1.50;1.00;;;16.90;65.00;;;;;;5071571;28;20060;-72
2022/09/26 12:46:14;;;;;;;1.83;1.10;;;16.90;65.00;;;;;;5071651;28;20052;-72
2022/09/26 12:48:48;;;;;;;2.08;1.00;;;16.90;64.90;;;;;;5070816;28;20086;-72
2022/09/26 12:51:21;;;;;;;1.57;1.20;;;16.80;65.00;;;;;;5066628;28;20123;-71
2022/09/26 12:54:00;;;;;;;1.90;1.20;;;16.80;65.10;;;;;;5051499;28;20076;-71
2022/09/26 12:56:33;;;;;;;3.28;1.40;;;16.80;65.10;;;;;;5052460;28;20449;-71
2022/09/26 12:59:09;;;;;;;1.77;1.13;;;16.80;65.10;;;;;;5051163;28;20048;-71
2022/09/26 13:01:56;;;;;;;2.35;1.10;;;16.80;65.10;;;;;;5051073;28;20052;-71
2022/09/26 13:04:36;;;;;;;1.38;1.10;;;16.80;65.00;;;;;;5052560;28;20399;-70
2022/09/26 13:07:11;;;;;;;1.48;1.02;;;16.80;65.10;;;;;;5068487;28;20375;-71
2022/09/26 13:09:46;;;;;;;2.30;1.20;;;16.80;65.10;;;;;;5072398;28;20410;-71
2022/09/26 13:12:19;;;;;;;1.55;1.10;;;16.80;65.20;;;;;;5072021;28;20052;-70
2022/09/26 13:14:59;;;;;;;1.40;1.00;;;16.80;65.20;;;;;;5071133;28;20139;-72
2022/09/26 13:17:28;;;;;;;2.85;1.20;;;16.70;65.10;;;;;;5072488;28;20169;-72
2022/09/26 13:19:58;;;;;;;2.22;1.05;;;16.80;65.10;;;;;;5069685;28;20064;-74